createdAt,value
2018-05-29T00:01:23.055Z,68.92
2018-05-29T00:03:51.342Z,68.52
2018-05-29T00:06:19.618Z,68.48
2018-05-29T00:08:47.925Z,69.08
2018-05-29T00:11:16.187Z,69.49
2018-05-29T00:13:44.477Z,69.06
2018-05-29T00:16:12.764Z,68.70
2018-05-29T00:18:41.250Z,68.18
2018-05-29T00:21:09.525Z,68.27
2018-05-29T00:23:37.833Z,68.66
2018-05-29T00:26:06.117Z,68.59
2018-05-29T00:28:34.417Z,68.30
2018-05-29T00:31:03.615Z,68.55
2018-05-29T00:33:31.931Z,68.61
2018-05-29T00:36:00.620Z,68.79
2018-05-29T00:38:29.829Z,68.74
2018-05-29T00:40:58.218Z,68.85
2018-05-29T00:43:26.557Z,69.01
2018-05-29T00:45:54.834Z,68.74
2018-05-29T00:48:23.102Z,68.15
2018-05-29T00:50:51.410Z,68.25
2018-05-29T00:53:19.694Z,69.00
2018-05-29T00:55:47.999Z,68.82
2018-05-29T00:58:16.277Z,69.17
2018-05-29T01:00:44.569Z,68.71
2018-05-29T01:03:12.842Z,68.33
2018-05-29T01:05:41.138Z,68.42
2018-05-29T01:08:09.422Z,68.79
2018-05-29T01:10:37.757Z,68.63
2018-05-29T01:13:07.526Z,68.53
2018-05-29T01:15:35.883Z,68.16
2018-05-29T01:18:05.424Z,68.01
2018-05-29T01:20:33.725Z,67.82
2018-05-29T01:23:02.008Z,68.12
2018-05-29T01:25:30.603Z,70.27
2018-05-29T01:27:59.538Z,70.75
2018-05-29T01:30:27.829Z,70.41
2018-05-29T01:32:56.101Z,70.91
2018-05-29T01:35:24.410Z,70.74
2018-05-29T01:37:52.906Z,69.66
2018-05-29T01:40:21.177Z,69.54
2018-05-29T01:42:49.478Z,69.55
2018-05-29T01:45:17.745Z,69.69
2018-05-29T01:47:46.035Z,70.10
2018-05-29T01:50:14.301Z,70.49
2018-05-29T01:52:42.620Z,70.23
2018-05-29T01:55:10.873Z,70.00
2018-05-29T01:57:39.754Z,69.61
2018-05-29T02:00:08.038Z,69.35
2018-05-29T02:02:36.345Z,69.31
2018-05-29T02:05:04.937Z,69.05
2018-05-29T02:07:33.310Z,68.85
2018-05-29T02:10:01.608Z,68.86
2018-05-29T02:12:29.929Z,68.86
2018-05-29T02:14:58.670Z,69.25
2018-05-29T02:17:27.074Z,69.46
2018-05-29T02:19:55.355Z,69.07
2018-05-29T02:22:23.886Z,69.09
2018-05-29T02:24:52.160Z,69.50
2018-05-29T02:27:20.463Z,69.79
2018-05-29T02:29:49.162Z,69.99
2018-05-29T02:32:17.459Z,70.07
2018-05-29T02:34:45.738Z,70.11
2018-05-29T02:37:14.271Z,70.12
2018-05-29T02:39:43.175Z,70.48
2018-05-29T02:42:11.442Z,70.74
2018-05-29T02:44:39.745Z,71.10
2018-05-29T02:47:08.023Z,71.44
2018-05-29T02:49:36.945Z,71.53
2018-05-29T02:52:05.679Z,71.47
2018-05-29T02:54:34.002Z,71.27
2018-05-29T02:57:02.295Z,71.44
2018-05-29T02:59:30.586Z,71.79
2018-05-29T03:01:58.850Z,72.17
2018-05-29T03:04:27.151Z,71.94
2018-05-29T03:06:55.417Z,72.11
2018-05-29T03:09:24.162Z,71.84
2018-05-29T03:11:52.489Z,71.46
2018-05-29T03:14:21.273Z,71.00
2018-05-29T03:16:49.914Z,71.03
2018-05-29T03:19:18.207Z,71.10
2018-05-29T03:21:46.479Z,70.66
2018-05-29T03:24:14.888Z,69.90
2018-05-29T03:26:43.196Z,69.84
2018-05-29T03:29:11.481Z,69.81
2018-05-29T03:31:39.787Z,70.42
2018-05-29T03:34:08.055Z,70.98
2018-05-29T03:36:36.357Z,70.84
2018-05-29T03:39:04.630Z,70.68
2018-05-29T03:41:32.957Z,70.68
2018-05-29T03:44:01.222Z,70.37
2018-05-29T03:46:29.537Z,70.20
2018-05-29T03:48:57.800Z,70.53
2018-05-29T03:51:26.165Z,70.88
2018-05-29T03:53:54.370Z,71.08
2018-05-29T03:56:22.670Z,71.03
2018-05-29T03:58:50.950Z,71.10
2018-05-29T04:01:19.261Z,70.87
2018-05-29T04:03:48.697Z,70.74
2018-05-29T04:06:17.019Z,70.90
2018-05-29T04:08:45.281Z,70.76
2018-05-29T04:11:13.592Z,70.41
2018-05-29T04:13:41.857Z,70.10
2018-05-29T04:16:10.163Z,69.79
2018-05-29T04:18:38.811Z,69.98
2018-05-29T04:21:07.126Z,69.85
2018-05-29T04:23:35.510Z,70.18
2018-05-29T04:26:04.197Z,70.08
2018-05-29T04:28:33.041Z,70.04
2018-05-29T04:31:01.309Z,70.12
2018-05-29T04:33:29.611Z,70.19
2018-05-29T04:35:57.895Z,69.93
2018-05-29T04:38:26.187Z,69.94
2018-05-29T04:40:54.462Z,70.54
2018-05-29T04:43:22.765Z,70.89
2018-05-29T04:45:51.040Z,70.93
2018-05-29T04:48:19.486Z,70.83
2018-05-29T04:50:47.763Z,70.36
2018-05-29T04:53:16.066Z,70.15
2018-05-29T04:55:44.343Z,70.29
2018-05-29T04:58:12.647Z,70.44
2018-05-29T05:00:40.926Z,70.86
2018-05-29T05:03:09.241Z,70.64
2018-05-29T05:05:37.521Z,70.40
2018-05-29T05:08:05.825Z,70.52
2018-05-29T05:10:34.239Z,70.61
2018-05-29T05:13:02.529Z,70.41
2018-05-29T05:15:30.813Z,70.17
2018-05-29T05:17:59.105Z,70.11
2018-05-29T05:20:27.410Z,69.78
2018-05-29T05:22:55.681Z,69.84
2018-05-29T05:25:23.984Z,70.19
2018-05-29T05:27:52.372Z,70.00
2018-05-29T05:30:20.683Z,69.71
2018-05-29T05:32:48.951Z,70.26
2018-05-29T05:35:17.260Z,70.45
2018-05-29T05:37:45.588Z,70.36
2018-05-29T05:40:13.883Z,70.17
2018-05-29T05:42:42.204Z,70.93
2018-05-29T05:45:10.510Z,70.75
2018-05-29T05:47:38.787Z,70.36
2018-05-29T05:50:07.101Z,70.25
2018-05-29T05:52:35.375Z,70.01
2018-05-29T05:55:03.742Z,69.68
2018-05-29T05:57:32.454Z,69.46
2018-05-29T06:00:00.748Z,69.36
2018-05-29T06:02:29.035Z,69.19
2018-05-29T06:04:57.323Z,69.42
2018-05-29T06:07:25.622Z,70.00
2018-05-29T06:09:53.898Z,70.01
2018-05-29T06:12:22.193Z,69.77
2018-05-29T06:14:50.462Z,69.06
2018-05-29T06:17:18.792Z,68.97
2018-05-29T06:19:47.070Z,68.50
2018-05-29T06:22:15.390Z,68.36
2018-05-29T06:24:43.655Z,68.29
2018-05-29T06:27:11.969Z,68.10
2018-05-29T06:29:40.245Z,68.06
2018-05-29T06:32:08.545Z,67.93
2018-05-29T06:34:37.219Z,67.57
2018-05-29T06:37:05.931Z,67.45
2018-05-29T06:39:34.235Z,67.89
2018-05-29T06:42:03.233Z,67.85
2018-05-29T06:44:31.529Z,67.35
2018-05-29T06:46:59.805Z,67.14
2018-05-29T06:49:28.098Z,66.81
2018-05-29T06:51:56.989Z,66.65
2018-05-29T06:54:25.268Z,66.60
2018-05-29T06:56:53.559Z,66.41
2018-05-29T06:59:21.868Z,66.12
2018-05-29T07:01:50.132Z,66.31
2018-05-29T07:04:18.422Z,65.43
2018-05-29T07:06:46.722Z,66.16
2018-05-29T07:09:31.819Z,66.11
2018-05-29T07:12:00.132Z,65.80
2018-05-29T07:14:28.467Z,65.09
2018-05-29T07:16:56.699Z,64.77
2018-05-29T07:19:24.989Z,64.98
2018-05-29T07:21:53.273Z,65.00
2018-05-29T07:24:21.568Z,64.62
2018-05-29T07:26:49.841Z,64.69
2018-05-29T07:29:18.155Z,64.73
2018-05-29T07:31:46.446Z,64.83
2018-05-29T07:34:14.723Z,64.92
2018-05-29T07:36:43.018Z,65.55
2018-05-29T07:39:11.294Z,66.37
2018-05-29T07:41:39.586Z,66.76
2018-05-29T07:44:07.850Z,65.99
2018-05-29T07:46:36.182Z,65.78
2018-05-29T07:49:04.727Z,65.77
2018-05-29T07:51:33.274Z,65.50
2018-05-29T07:54:01.605Z,65.12
2018-05-29T07:56:29.955Z,64.55
2018-05-29T07:58:58.219Z,64.23
2018-05-29T08:01:26.526Z,64.00
2018-05-29T08:03:54.878Z,64.03
2018-05-29T08:06:23.183Z,63.66
2018-05-29T08:08:51.437Z,63.53
2018-05-29T08:11:19.754Z,64.18
2018-05-29T08:13:48.851Z,64.21
2018-05-29T08:16:17.158Z,64.63
2018-05-29T08:18:45.419Z,64.54
2018-05-29T08:21:13.722Z,64.48
2018-05-29T08:23:42.049Z,64.49
2018-05-29T08:26:10.377Z,64.65
2018-05-29T08:28:38.635Z,64.96
2018-05-29T08:31:07.016Z,65.15
2018-05-29T08:33:35.242Z,64.92
2018-05-29T08:36:03.552Z,64.37
2018-05-29T08:38:31.850Z,64.08
2018-05-29T08:41:00.106Z,63.86
2018-05-29T08:43:29.095Z,63.92
2018-05-29T08:45:57.355Z,63.80
2018-05-29T08:48:25.674Z,64.20
2018-05-29T08:50:53.922Z,64.78
2018-05-29T08:53:22.215Z,64.64
2018-05-29T08:55:50.601Z,64.00
2018-05-29T08:58:18.877Z,64.21
2018-05-29T09:00:47.163Z,64.42
2018-05-29T09:03:15.554Z,64.36
2018-05-29T09:05:43.847Z,63.95
2018-05-29T09:08:12.151Z,64.05
2018-05-29T09:10:40.740Z,64.59
2018-05-29T09:13:09.046Z,64.20
2018-05-29T09:15:37.331Z,64.22
2018-05-29T09:18:06.360Z,63.85
2018-05-29T09:20:34.643Z,63.55
2018-05-29T09:23:02.926Z,63.79
2018-05-29T09:25:31.240Z,63.97
2018-05-29T09:27:59.529Z,64.16
2018-05-29T09:30:27.830Z,64.35
2018-05-29T09:32:56.102Z,65.21
2018-05-29T09:35:24.411Z,65.95
2018-05-29T09:37:52.655Z,66.41
2018-05-29T09:40:21.692Z,66.60
2018-05-29T09:42:49.998Z,66.23
2018-05-29T09:45:18.257Z,65.56
2018-05-29T09:47:46.518Z,65.42
2018-05-29T09:50:14.813Z,65.56
2018-05-29T09:52:43.096Z,66.05
2018-05-29T09:55:11.789Z,66.07
2018-05-29T09:57:40.186Z,66.55
2018-05-29T10:00:08.495Z,66.02
2018-05-29T10:02:36.773Z,65.79
2018-05-29T10:05:05.200Z,65.66
2018-05-29T10:07:33.484Z,65.45
2018-05-29T10:10:01.751Z,65.51
2018-05-29T10:12:30.031Z,64.97
2018-05-29T10:14:58.345Z,64.67
2018-05-29T10:17:26.724Z,64.48
2018-05-29T10:19:54.997Z,64.32
2018-05-29T10:22:23.309Z,64.08
2018-05-29T10:24:51.602Z,64.33
2018-05-29T10:27:19.947Z,64.26
2018-05-29T10:29:48.233Z,63.95
2018-05-29T10:32:16.954Z,64.44
2018-05-29T10:34:46.597Z,64.24
2018-05-29T10:37:15.550Z,64.22
2018-05-29T10:39:43.810Z,64.21
2018-05-29T10:42:12.090Z,63.60
2018-05-29T10:44:40.371Z,62.57
2018-05-29T10:47:08.656Z,62.30
2018-05-29T10:49:36.906Z,62.54
2018-05-29T10:52:05.200Z,61.78
2018-05-29T10:54:33.470Z,61.85
2018-05-29T10:57:01.759Z,61.99
2018-05-29T10:59:30.042Z,62.10
2018-05-29T11:01:58.320Z,62.36
2018-05-29T11:04:26.643Z,62.06
2018-05-29T11:06:55.138Z,61.44
2018-05-29T11:09:23.334Z,61.02
2018-05-29T11:11:51.731Z,60.14
2018-05-29T11:14:20.074Z,59.53
2018-05-29T11:16:48.298Z,59.56
2018-05-29T11:19:16.595Z,59.38
2018-05-29T11:21:44.899Z,59.70
2018-05-29T11:24:13.178Z,59.90
2018-05-29T11:26:41.470Z,59.56
2018-05-29T11:29:09.770Z,59.57
2018-05-29T11:31:38.059Z,59.82
2018-05-29T11:34:06.351Z,60.42
2018-05-29T11:36:34.618Z,59.80
2018-05-29T11:39:02.922Z,59.58
2018-05-29T11:41:31.247Z,59.97
2018-05-29T11:43:59.501Z,60.04
2018-05-29T11:46:27.789Z,59.39
2018-05-29T11:48:56.383Z,59.24
2018-05-29T11:51:24.663Z,59.67
2018-05-29T11:53:52.927Z,60.32
2018-05-29T11:56:21.217Z,60.82
2018-05-29T11:58:49.479Z,60.65
2018-05-29T12:01:17.789Z,60.58
2018-05-29T12:03:46.065Z,60.65
2018-05-29T12:06:14.354Z,60.33
2018-05-29T12:08:42.972Z,60.39
2018-05-29T12:11:11.249Z,60.01
2018-05-29T12:13:40.358Z,60.30
2018-05-29T12:16:08.647Z,60.48
2018-05-29T12:18:37.735Z,60.59
2018-05-29T12:21:06.023Z,60.09
2018-05-29T12:23:34.311Z,60.05
2018-05-29T12:26:02.582Z,60.11
2018-05-29T12:28:30.872Z,60.29
2018-05-29T12:30:59.143Z,60.75
2018-05-29T12:33:27.476Z,60.88
2018-05-29T12:35:55.743Z,61.00
2018-05-29T12:38:24.039Z,60.79
2018-05-29T12:40:52.323Z,60.57
2018-05-29T12:43:20.590Z,60.04
2018-05-29T12:45:48.857Z,59.58
2018-05-29T12:48:17.154Z,59.53
2018-05-29T12:50:45.415Z,59.03
2018-05-29T12:53:13.723Z,58.89
2018-05-29T12:55:41.967Z,58.96
2018-05-29T12:58:10.329Z,58.95
2018-05-29T13:00:38.596Z,59.10
2018-05-29T13:03:06.866Z,58.24
2018-05-29T13:05:35.196Z,58.04
2018-05-29T13:08:03.467Z,58.26
2018-05-29T13:10:31.751Z,58.50
2018-05-29T13:13:00.041Z,58.54
2018-05-29T13:15:28.330Z,58.82
2018-05-29T13:17:56.592Z,59.13
2018-05-29T13:20:24.873Z,59.41
2018-05-29T13:22:53.174Z,59.32
2018-05-29T13:25:21.464Z,59.16
2018-05-29T13:27:49.719Z,59.10
2018-05-29T13:30:18.010Z,59.38
2018-05-29T13:32:46.279Z,59.51
2018-05-29T13:35:14.584Z,59.50
2018-05-29T13:37:42.830Z,59.47
2018-05-29T13:40:11.165Z,60.00
2018-05-29T13:42:39.414Z,59.97
2018-05-29T13:45:07.718Z,60.00
2018-05-29T13:47:35.999Z,60.33
2018-05-29T13:50:05.195Z,60.89
2018-05-29T13:52:33.474Z,61.12
2018-05-29T13:55:01.767Z,61.25
2018-05-29T13:57:30.063Z,61.25
2018-05-29T13:59:58.391Z,61.06
2018-05-29T14:02:26.959Z,61.49
2018-05-29T14:04:55.227Z,61.62
2018-05-29T14:07:23.509Z,61.10
2018-05-29T14:09:51.783Z,60.68
2018-05-29T14:12:20.292Z,59.89
2018-05-29T14:14:48.515Z,59.82
2018-05-29T14:17:16.809Z,59.69
2018-05-29T14:19:45.108Z,59.60
2018-05-29T14:22:14.093Z,58.90
2018-05-29T14:24:42.365Z,58.84
2018-05-29T14:27:10.704Z,58.61
2018-05-29T14:29:38.963Z,58.13
2018-05-29T14:32:07.229Z,58.14
2018-05-29T14:34:35.700Z,57.82
2018-05-29T14:37:03.999Z,57.80
2018-05-29T14:39:32.458Z,57.91
2018-05-29T14:42:00.721Z,58.21
2018-05-29T14:44:29.796Z,59.08
2018-05-29T14:46:58.058Z,58.63
2018-05-29T14:49:26.379Z,58.44
2018-05-29T14:51:55.834Z,57.88
2018-05-29T14:54:24.116Z,57.95
2018-05-29T14:56:52.377Z,58.26
2018-05-29T14:59:20.730Z,58.66
2018-05-29T15:01:48.993Z,59.14
2018-05-29T15:04:17.291Z,59.20
2018-05-29T15:06:45.584Z,59.23
2018-05-29T15:09:13.910Z,59.28
2018-05-29T15:11:42.198Z,58.60
2018-05-29T15:14:10.462Z,58.41
2018-05-29T15:16:38.758Z,58.49
2018-05-29T15:19:07.043Z,59.27
2018-05-29T15:21:35.332Z,58.85
2018-05-29T15:24:03.603Z,58.66
2018-05-29T15:26:32.860Z,58.71
2018-05-29T15:29:01.560Z,58.54
2018-05-29T15:31:29.861Z,58.87
2018-05-29T15:33:58.139Z,58.83
2018-05-29T15:36:26.414Z,58.90
2018-05-29T15:38:54.741Z,58.39
2018-05-29T15:41:23.067Z,58.10
2018-05-29T15:43:51.318Z,59.32
2018-05-29T15:46:19.627Z,58.09
2018-05-29T15:48:47.917Z,58.77
2018-05-29T15:51:16.268Z,58.17
2018-05-29T15:53:45.332Z,57.33
2018-05-29T15:56:13.978Z,57.11
2018-05-29T15:58:42.960Z,56.80
2018-05-29T16:01:11.223Z,56.06
2018-05-29T16:03:39.781Z,56.80
2018-05-29T16:06:08.211Z,56.92
2018-05-29T16:08:36.465Z,57.00
2018-05-29T16:11:04.748Z,55.93
2018-05-29T16:13:33.039Z,55.86
2018-05-29T16:16:01.305Z,55.28
2018-05-29T16:18:29.607Z,56.12
2018-05-29T16:20:58.058Z,56.55
2018-05-29T16:23:27.046Z,56.90
2018-05-29T16:25:55.326Z,56.68
2018-05-29T16:28:23.627Z,56.76
2018-05-29T16:30:51.928Z,56.97
2018-05-29T16:33:20.225Z,56.69
2018-05-29T16:35:48.483Z,57.93
2018-05-29T16:38:16.782Z,58.18
2018-05-29T16:40:45.103Z,58.83
2018-05-29T16:43:13.804Z,59.19
2018-05-29T16:45:42.077Z,59.38
2018-05-29T16:48:10.399Z,59.89
2018-05-29T16:50:38.715Z,60.38
2018-05-29T16:53:07.002Z,59.80
2018-05-29T16:55:36.941Z,59.58
2018-05-29T16:58:05.824Z,59.21
2018-05-29T17:00:34.173Z,58.60
2018-05-29T17:03:02.444Z,58.11
2018-05-29T17:05:30.738Z,57.95
2018-05-29T17:07:59.022Z,58.21
2018-05-29T17:10:27.548Z,58.88
2018-05-29T17:12:55.793Z,58.91
2018-05-29T17:15:24.174Z,58.76
2018-05-29T17:17:52.368Z,58.75
2018-05-29T17:20:20.652Z,57.94
2018-05-29T17:22:48.967Z,58.84
2018-05-29T17:25:18.010Z,58.75
2018-05-29T17:27:46.961Z,58.57
2018-05-29T17:30:15.272Z,59.06
2018-05-29T17:32:43.845Z,59.27
2018-05-29T17:35:12.132Z,59.96
2018-05-29T17:37:40.477Z,60.36
2018-05-29T17:40:08.878Z,60.21
2018-05-29T17:42:37.194Z,60.78
2018-05-29T17:45:05.943Z,59.11
2018-05-29T17:47:34.472Z,58.89
2018-05-29T17:50:02.773Z,58.95
2018-05-29T17:52:31.062Z,59.50
2018-05-29T17:54:59.330Z,59.20
2018-05-29T17:57:27.638Z,59.16
2018-05-29T17:59:55.906Z,59.59
2018-05-29T18:02:24.349Z,60.06
2018-05-29T18:04:52.602Z,61.28
2018-05-29T18:07:20.949Z,60.74
2018-05-29T18:09:49.518Z,59.88
2018-05-29T18:12:17.822Z,61.93
2018-05-29T18:14:46.101Z,60.43
2018-05-29T18:17:14.407Z,61.11
2018-05-29T18:19:42.686Z,60.24
2018-05-29T18:22:11.238Z,61.12
2018-05-29T18:24:39.518Z,59.83
2018-05-29T18:27:07.934Z,60.14
2018-05-29T18:29:36.219Z,59.58
2018-05-29T18:32:05.055Z,59.85
2018-05-29T18:34:33.357Z,58.20
2018-05-29T18:37:01.638Z,58.45
2018-05-29T18:39:29.954Z,58.90
2018-05-29T18:41:58.208Z,58.45
2018-05-29T18:44:26.538Z,58.06
2018-05-29T18:46:54.805Z,58.56
2018-05-29T18:49:23.191Z,57.66
2018-05-29T18:51:51.447Z,58.01
2018-05-29T18:54:19.735Z,58.80
2018-05-29T18:56:48.166Z,59.05
2018-05-29T18:59:16.495Z,58.93
2018-05-29T19:01:44.763Z,58.93
2018-05-29T19:04:13.057Z,58.90
2018-05-29T19:06:41.325Z,60.32
2018-05-29T19:09:09.623Z,60.33
2018-05-29T19:11:37.880Z,60.01
2018-05-29T19:14:06.189Z,59.68
2018-05-29T19:16:34.468Z,59.73
2018-05-29T19:19:02.772Z,59.77
2018-05-29T19:21:31.103Z,60.36
2018-05-29T19:23:59.370Z,60.55
2018-05-29T19:26:27.683Z,60.13
2018-05-29T19:28:55.980Z,59.88
2018-05-29T19:31:25.719Z,60.10
2018-05-29T19:33:54.032Z,60.02
2018-05-29T19:36:24.001Z,59.86
2018-05-29T19:38:52.271Z,60.18
2018-05-29T19:41:20.559Z,59.94
2018-05-29T19:43:48.868Z,60.01
2018-05-29T19:46:17.179Z,59.71
2018-05-29T19:48:45.450Z,59.52
2018-05-29T19:51:13.816Z,59.40
2018-05-29T19:53:42.046Z,59.51
2018-05-29T19:56:10.350Z,59.57
2018-05-29T19:58:38.618Z,59.36
2018-05-29T20:01:06.881Z,59.46
2018-05-29T20:03:35.210Z,59.62
2018-05-29T20:06:03.471Z,59.57
2018-05-29T20:08:31.771Z,59.53
2018-05-29T20:11:03.437Z,59.18
2018-05-29T20:13:31.727Z,59.31
2018-05-29T20:16:06.618Z,59.53
2018-05-29T20:18:34.911Z,59.36
2018-05-29T20:21:06.462Z,58.70
2018-05-29T20:23:34.907Z,60.58
2018-05-29T20:26:03.254Z,62.33
2018-05-29T20:28:32.074Z,63.99
2018-05-29T20:31:00.353Z,65.03
2018-05-29T20:33:29.403Z,65.67
2018-05-29T20:35:58.911Z,66.01
2018-05-29T20:38:27.458Z,66.51
2018-05-29T20:40:59.250Z,66.62
2018-05-29T20:43:28.367Z,67.16
2018-05-29T20:45:57.374Z,67.20
2018-05-29T20:48:25.687Z,67.22
2018-05-29T20:50:53.950Z,67.44
2018-05-29T20:53:22.357Z,67.66
2018-05-29T20:55:50.637Z,68.07
2018-05-29T20:58:18.935Z,68.01
2018-05-29T21:00:53.736Z,68.15
2018-05-29T21:03:22.934Z,68.23
2018-05-29T21:05:51.310Z,68.44
2018-05-29T21:08:19.621Z,68.65
2018-05-29T21:10:47.962Z,69.01
2018-05-29T21:13:16.242Z,68.82
2018-05-29T21:15:44.549Z,68.91
2018-05-29T21:18:13.802Z,68.64
2018-05-29T21:20:42.070Z,68.85
2018-05-29T21:23:10.358Z,68.99
2018-05-29T21:25:38.643Z,69.17
2018-05-29T21:28:06.925Z,69.52
2018-05-29T21:30:35.223Z,69.79
2018-05-29T21:33:03.498Z,69.69
2018-05-29T21:35:31.763Z,70.00
2018-05-29T21:38:00.650Z,70.06
2018-05-29T21:40:28.942Z,69.87
2018-05-29T21:42:57.238Z,70.05
2018-05-29T21:45:25.525Z,70.63
2018-05-29T21:47:53.828Z,71.64
2018-05-29T21:50:22.087Z,72.00
2018-05-29T21:52:50.394Z,72.48
2018-05-29T21:55:18.672Z,72.22
2018-05-29T21:57:46.974Z,71.97
2018-05-29T22:00:15.373Z,72.62
2018-05-29T22:02:43.667Z,73.43
2018-05-29T22:05:11.944Z,73.40
2018-05-29T22:07:40.271Z,72.94
2018-05-29T22:10:08.537Z,72.98
2018-05-29T22:12:36.806Z,73.51
2018-05-29T22:15:05.095Z,73.20
2018-05-29T22:17:33.436Z,72.97
2018-05-29T22:20:01.713Z,73.46
2018-05-29T22:22:29.981Z,73.63
2018-05-29T22:24:58.288Z,73.41
2018-05-29T22:27:26.564Z,73.16
2018-05-29T22:29:54.894Z,73.06
2018-05-29T22:32:23.126Z,72.93
2018-05-29T22:34:51.418Z,72.92
2018-05-29T22:37:19.692Z,72.85
2018-05-29T22:39:47.977Z,73.27
2018-05-29T22:42:16.253Z,73.30
2018-05-29T22:44:44.584Z,73.50
2018-05-29T22:47:12.855Z,73.33
2018-05-29T22:49:41.134Z,72.97
2018-05-29T22:52:09.387Z,73.24
2018-05-29T22:54:37.695Z,73.19
2018-05-29T22:57:05.967Z,72.98
2018-05-29T22:59:34.235Z,72.64
2018-05-29T23:02:02.525Z,73.26
2018-05-29T23:04:30.797Z,73.54
2018-05-29T23:06:59.104Z,73.53
2018-05-29T23:09:27.355Z,74.00
2018-05-29T23:11:55.641Z,73.99
2018-05-29T23:14:23.910Z,73.67
2018-05-29T23:16:52.227Z,73.88
2018-05-29T23:19:20.494Z,73.87
2018-05-29T23:21:48.800Z,73.92
2018-05-29T23:24:17.107Z,73.97
2018-05-29T23:26:45.383Z,73.79
2018-05-29T23:29:13.654Z,73.59
2018-05-29T23:31:41.938Z,73.76
2018-05-29T23:34:10.222Z,73.85
2018-05-29T23:36:38.517Z,73.95
2018-05-29T23:39:06.798Z,73.88
2018-05-29T23:41:35.075Z,73.98
2018-05-29T23:44:03.391Z,74.04
2018-05-29T23:46:31.630Z,73.60
2018-05-29T23:49:00.856Z,73.51
2018-05-29T23:51:29.127Z,73.49
2018-05-29T23:53:57.405Z,73.47
2018-05-29T23:56:25.682Z,73.48
2018-05-29T23:58:53.968Z,73.55
